sensor_id;sensor_type;location;lat;lon;timestamp;pressure;altitude;pressure_sealevel;temperature;humidity
80640;BME280;69992;60.170;24.692;2023-07-20T00:01:34;99908.59;;;8.03;22.51
80640;BME280;69992;60.170;24.692;2023-07-20T00:04:00;99905.46;;;8.03;22.53
80640;BME280;69992;60.170;24.692;2023-07-20T00:06:25;99906.56;;;8.07;22.50
80640;BME280;69992;60.170;24.692;2023-07-20T00:08:51;99903.32;;;8.07;22.50
80640;BME280;69992;60.170;24.692;2023-07-20T00:11:16;99902.12;;;8.08;22.52
80640;BME280;69992;60.170;24.692;2023-07-20T00:13:42;99902.48;;;8.09;22.51
80640;BME280;69992;60.170;24.692;2023-07-20T00:16:07;99902.26;;;8.10;22.51
80640;BME280;69992;60.170;24.692;2023-07-20T00:18:33;99903.33;;;8.11;22.50
80640;BME280;69992;60.170;24.692;2023-07-20T00:20:59;99897.09;;;8.09;22.50
80640;BME280;69992;60.170;24.692;2023-07-20T00:23:24;99894.50;;;8.10;22.50
80640;BME280;69992;60.170;24.692;2023-07-20T00:25:50;99894.26;;;8.06;22.50
80640;BME280;69992;60.170;24.692;2023-07-20T00:28:15;99889.61;;;8.04;22.51
80640;BME280;69992;60.170;24.692;2023-07-20T00:30:41;99886.64;;;8.02;22.51
80640;BME280;69992;60.170;24.692;2023-07-20T00:33:11;99882.99;;;7.02;22.50
80640;BME280;69992;60.170;24.692;2023-07-20T00:35:32;99883.24;;;7.95;22.48
80640;BME280;69992;60.170;24.692;2023-07-20T00:37:58;99884.16;;;7.81;22.51
80640;BME280;69992;60.170;24.692;2023-07-20T00:40:23;99887.10;;;7.69;22.52
80640;BME280;69992;60.170;24.692;2023-07-20T00:42:49;99887.08;;;7.58;22.56
80640;BME280;69992;60.170;24.692;2023-07-20T00:45:15;99886.22;;;8.48;22.57
80640;BME280;69992;60.170;24.692;2023-07-20T00:47:41;99883.61;;;8.40;22.57
80640;BME280;69992;60.170;24.692;2023-07-20T00:50:07;99883.95;;;7.41;22.55
80640;BME280;69992;60.170;24.692;2023-07-20T00:52:32;99885.21;;;7.36;22.56
80640;BME280;69992;60.170;24.692;2023-07-20T00:54:57;99884.75;;;7.33;22.53
80640;BME280;69992;60.170;24.692;2023-07-20T00:57:24;99888.10;;;7.27;22.56
80640;BME280;69992;60.170;24.692;2023-07-20T00:59:48;99888.28;;;8.22;22.56
80640;BME280;69992;60.170;24.692;2023-07-20T01:02:14;99892.80;;;7.23;22.54
80640;BME280;69992;60.170;24.692;2023-07-20T01:04:40;99892.84;;;8.18;22.56
80640;BME280;69992;60.170;24.692;2023-07-20T01:07:12;99890.72;;;9.18;22.54
80640;BME280;69992;60.170;24.692;2023-07-20T01:09:37;99890.70;;;8.18;22.52
80640;BME280;69992;60.170;24.692;2023-07-20T01:12:02;99885.99;;;8.14;22.54
80640;BME280;69992;60.170;24.692;2023-07-20T01:14:23;99889.87;;;8.12;22.53
80640;BME280;69992;60.170;24.692;2023-07-20T01:16:48;99892.22;;;8.04;22.53
80640;BME280;69992;60.170;24.692;2023-07-20T01:19:13;99893.41;;;7.99;22.54
80640;BME280;69992;60.170;24.692;2023-07-20T01:21:42;99893.75;;;8.92;22.54
80640;BME280;69992;60.170;24.692;2023-07-20T01:24:16;99896.27;;;6.96;22.55
80640;BME280;69992;60.170;24.692;2023-07-20T01:26:43;99896.03;;;7.96;22.53
80640;BME280;69992;60.170;24.692;2023-07-20T01:31:23;99898.84;;;7.87;22.50
80640;BME280;69992;60.170;24.692;2023-07-20T01:33:49;99900.05;;;8.72;22.52
80640;BME280;69992;60.170;24.692;2023-07-20T01:36:14;99896.58;;;7.62;22.54
80640;BME280;69992;60.170;24.692;2023-07-20T01:38:39;99898.08;;;8.50;22.56
80640;BME280;69992;60.170;24.692;2023-07-20T01:41:05;99895.58;;;7.45;22.56
80640;BME280;69992;60.170;24.692;2023-07-20T01:43:30;99894.93;;;8.35;22.56
80640;BME280;69992;60.170;24.692;2023-07-20T01:45:55;99891.80;;;8.31;22.57
80640;BME280;69992;60.170;24.692;2023-07-20T01:48:21;99893.02;;;8.25;22.58
80640;BME280;69992;60.170;24.692;2023-07-20T01:50:47;99893.01;;;7.21;22.58
80640;BME280;69992;60.170;24.692;2023-07-20T01:53:12;99890.84;;;8.15;22.59
80640;BME280;69992;60.170;24.692;2023-07-20T01:55:38;99892.92;;;8.13;22.57
80640;BME280;69992;60.170;24.692;2023-07-20T01:58:04;99893.42;;;8.09;22.58
80640;BME280;69992;60.170;24.692;2023-07-20T02:00:29;99891.44;;;8.05;22.59
80640;BME280;69992;60.170;24.692;2023-07-20T02:02:55;99890.78;;;8.06;22.59
80640;BME280;69992;60.170;24.692;2023-07-20T02:05:21;99888.89;;;8.05;22.58
80640;BME280;69992;60.170;24.692;2023-07-20T02:07:46;99889.14;;;8.06;22.57
80640;BME280;69992;60.170;24.692;2023-07-20T02:10:12;99886.82;;;8.09;22.58
80640;BME280;69992;60.170;24.692;2023-07-20T02:12:37;99888.65;;;6.19;22.57
80640;BME280;69992;60.170;24.692;2023-07-20T02:15:04;99893.38;;;7.21;22.56
80640;BME280;69992;60.170;24.692;2023-07-20T02:17:29;99895.53;;;8.26;22.55
80640;BME280;69992;60.170;24.692;2023-07-20T02:19:55;99893.98;;;8.27;22.54
80640;BME280;69992;60.170;24.692;2023-07-20T02:22:20;99895.44;;;8.28;22.54
80640;BME280;69992;60.170;24.692;2023-07-20T02:24:46;99892.76;;;8.27;22.54
80640;BME280;69992;60.170;24.692;2023-07-20T02:27:11;99893.13;;;7.29;22.54
80640;BME280;69992;60.170;24.692;2023-07-20T02:29:37;99888.67;;;8.29;22.54
80640;BME280;69992;60.170;24.692;2023-07-20T02:32:03;99887.12;;;8.33;22.55
80640;BME280;69992;60.170;24.692;2023-07-20T02:34:28;99886.31;;;7.39;22.53
80640;BME280;69992;60.170;24.692;2023-07-20T02:36:54;99883.99;;;8.40;22.54
80640;BME280;69992;60.170;24.692;2023-07-20T02:39:19;99886.47;;;8.45;22.54
80640;BME280;69992;60.170;24.692;2023-07-20T02:41:45;99886.44;;;7.56;22.53
80640;BME280;69992;60.170;24.692;2023-07-20T02:44:10;99890.36;;;7.68;22.53
80640;BME280;69992;60.170;24.692;2023-07-20T02:46:36;99891.99;;;8.79;22.52
80640;BME280;69992;60.170;24.692;2023-07-20T02:49:02;99890.56;;;8.90;22.49
80640;BME280;69992;60.170;24.692;2023-07-20T02:51:28;99895.18;;;9.01;22.49
80640;BME280;69992;60.170;24.692;2023-07-20T02:53:53;99892.43;;;7.26;22.44
80640;BME280;69992;60.170;24.692;2023-07-20T02:56:19;99892.68;;;8.24;22.47
80640;BME280;69992;60.170;24.692;2023-07-20T02:58:44;99895.44;;;8.24;22.50
80640;BME280;69992;60.170;24.692;2023-07-20T03:01:10;99893.98;;;7.33;22.52
80640;BME280;69992;60.170;24.692;2023-07-20T03:03:36;99891.48;;;8.38;22.53
80640;BME280;69992;60.170;24.692;2023-07-20T03:06:01;99894.75;;;8.47;22.52
80640;BME280;69992;60.170;24.692;2023-07-20T03:08:27;99900.30;;;8.56;22.52
80640;BME280;69992;60.170;24.692;2023-07-20T03:10:53;99902.23;;;7.68;22.54
80640;BME280;69992;60.170;24.692;2023-07-20T03:13:18;99904.33;;;7.79;22.53
80640;BME280;69992;60.170;24.692;2023-07-20T03:15:44;99899.76;;;7.97;22.52
80640;BME280;69992;60.170;24.692;2023-07-20T03:18:09;99898.44;;;9.11;22.50
80640;BME280;69992;60.170;24.692;2023-07-20T03:20:35;99900.72;;;8.29;22.50
80640;BME280;69992;60.170;24.692;2023-07-20T03:23:01;99899.86;;;8.51;22.49
80640;BME280;69992;60.170;24.692;2023-07-20T03:25:26;99901.09;;;8.76;22.48
80640;BME280;69992;60.170;24.692;2023-07-20T03:27:52;99901.92;;;9.01;22.48
80640;BME280;69992;60.170;24.692;2023-07-20T03:30:18;99902.81;;;11.22;22.48
80640;BME280;69992;60.170;24.692;2023-07-20T03:32:43;99905.53;;;9.55;22.47
80640;BME280;69992;60.170;24.692;2023-07-20T03:35:09;99906.49;;;8.84;22.46
80640;BME280;69992;60.170;24.692;2023-07-20T03:37:34;99901.38;;;10.10;22.48
80640;BME280;69992;60.170;24.692;2023-07-20T03:40:00;99898.69;;;9.36;22.48
80640;BME280;69992;60.170;24.692;2023-07-20T03:42:25;99898.44;;;10.56;22.51
80640;BME280;69992;60.170;24.692;2023-07-20T03:44:51;99896.10;;;9.77;22.51
80640;BME280;69992;60.170;24.692;2023-07-20T03:47:16;99896.19;;;9.79;22.58
80640;BME280;69992;60.170;24.692;2023-07-20T03:49:42;99896.41;;;9.97;22.60
80640;BME280;69992;60.170;24.692;2023-07-20T03:52:08;99901.19;;;10.17;22.61
80640;BME280;69992;60.170;24.692;2023-07-20T03:54:33;99902.35;;;9.39;22.60
80640;BME280;69992;60.170;24.692;2023-07-20T03:56:59;99903.77;;;9.60;22.61
80640;BME280;69992;60.170;24.692;2023-07-20T03:59:24;99900.88;;;10.78;22.60
80640;BME280;69992;60.170;24.692;2023-07-20T04:01:49;99901.34;;;10.01;22.59
80640;BME280;69992;60.170;24.692;2023-07-20T04:04:16;99903.66;;;10.14;22.69
80640;BME280;69992;60.170;24.692;2023-07-20T04:06:41;99905.90;;;10.06;22.65
80640;BME280;69992;60.170;24.692;2023-07-20T04:09:06;99905.19;;;9.12;22.67
80640;BME280;69992;60.170;24.692;2023-07-20T04:11:32;99904.61;;;11.20;22.70
80640;BME280;69992;60.170;24.692;2023-07-20T04:13:57;99902.68;;;10.33;22.70
80640;BME280;69992;60.170;24.692;2023-07-20T04:16:23;99901.41;;;10.49;22.70
80640;BME280;69992;60.170;24.692;2023-07-20T04:18:49;99899.93;;;10.63;22.68
80640;BME280;69992;60.170;24.692;2023-07-20T04:21:14;99900.72;;;10.76;22.69
80640;BME280;69992;60.170;24.692;2023-07-20T04:23:40;99899.64;;;10.87;22.69
80640;BME280;69992;60.170;24.692;2023-07-20T04:26:05;99895.16;;;9.87;22.70
80640;BME280;69992;60.170;24.692;2023-07-20T04:28:31;99890.34;;;10.66;22.85
80640;BME280;69992;60.170;24.692;2023-07-20T04:31:10;99890.13;;;9.62;22.83
80640;BME280;69992;60.170;24.692;2023-07-20T04:33:22;99891.68;;;9.73;22.82
80640;BME280;69992;60.170;24.692;2023-07-20T04:35:49;99892.22;;;9.80;22.82
80640;BME280;69992;60.170;24.692;2023-07-20T04:38:14;99895.50;;;10.83;22.85
80640;BME280;69992;60.170;24.692;2023-07-20T04:40:39;99900.78;;;10.81;22.85
80640;BME280;69992;60.170;24.692;2023-07-20T04:43:04;99901.21;;;10.84;22.87
80640;BME280;69992;60.170;24.692;2023-07-20T04:45:30;99901.22;;;9.04;22.88
80640;BME280;69992;60.170;24.692;2023-07-20T04:47:56;99898.21;;;11.16;22.87
80640;BME280;69992;60.170;24.692;2023-07-20T04:50:21;99901.20;;;10.40;22.84
80640;BME280;69992;60.170;24.692;2023-07-20T04:52:47;99901.42;;;10.58;22.84
80640;BME280;69992;60.170;24.692;2023-07-20T04:55:12;99904.54;;;9.70;22.84
80640;BME280;69992;60.170;24.692;2023-07-20T04:57:38;99904.33;;;10.79;22.84
80640;BME280;69992;60.170;24.692;2023-07-20T05:00:05;99908.18;;;9.97;22.85
80640;BME280;69992;60.170;24.692;2023-07-20T05:02:29;99905.20;;;11.12;22.83
80640;BME280;69992;60.170;24.692;2023-07-20T05:04:55;99905.10;;;10.20;22.85
80640;BME280;69992;60.170;24.692;2023-07-20T05:07:20;99906.65;;;10.29;22.85
80640;BME280;69992;60.170;24.692;2023-07-20T05:09:46;99906.81;;;10.45;22.84
80640;BME280;69992;60.170;24.692;2023-07-20T05:12:11;99906.80;;;10.67;22.84
80640;BME280;69992;60.170;24.692;2023-07-20T05:14:37;99907.94;;;10.89;22.85
80640;BME280;69992;60.170;24.692;2023-07-20T05:17:03;99908.75;;;10.08;22.87
80640;BME280;69992;60.170;24.692;2023-07-20T05:19:28;99908.52;;;10.20;22.86
80640;BME280;69992;60.170;24.692;2023-07-20T05:21:54;99906.95;;;11.31;22.87
80640;BME280;69992;60.170;24.692;2023-07-20T05:24:19;99904.67;;;11.36;22.88
80640;BME280;69992;60.170;24.692;2023-07-20T05:26:45;99903.00;;;11.42;22.89
80640;BME280;69992;60.170;24.692;2023-07-20T05:29:10;99901.51;;;10.49;22.91
80640;BME280;69992;60.170;24.692;2023-07-20T05:31:36;99900.56;;;11.41;22.95
80640;BME280;69992;60.170;24.692;2023-07-20T05:34:01;99902.72;;;11.38;22.96
80640;BME280;69992;60.170;24.692;2023-07-20T05:36:27;99902.80;;;11.40;22.97
80640;BME280;69992;60.170;24.692;2023-07-20T05:38:53;99902.48;;;11.42;22.98
80640;BME280;69992;60.170;24.692;2023-07-20T05:41:18;99901.18;;;11.45;22.99
80640;BME280;69992;60.170;24.692;2023-07-20T05:43:44;99899.93;;;10.61;22.95
80640;BME280;69992;60.170;24.692;2023-07-20T05:46:09;99901.94;;;10.62;22.97
80640;BME280;69992;60.170;24.692;2023-07-20T05:48:35;99904.28;;;10.66;23.00
80640;BME280;69992;60.170;24.692;2023-07-20T05:51:01;99906.25;;;11.67;23.03
80640;BME280;69992;60.170;24.692;2023-07-20T05:53:26;99906.59;;;11.71;23.04
80640;BME280;69992;60.170;24.692;2023-07-20T05:55:53;99908.21;;;11.78;23.04
80640;BME280;69992;60.170;24.692;2023-07-20T05:58:16;99910.73;;;11.84;23.06
80640;BME280;69992;60.170;24.692;2023-07-20T06:00:42;99907.32;;;11.89;23.06
80640;BME280;69992;60.170;24.692;2023-07-20T06:03:07;99906.10;;;10.97;23.06
80640;BME280;69992;60.170;24.692;2023-07-20T06:05:33;99904.46;;;11.03;23.08
80640;BME280;69992;60.170;24.692;2023-07-20T06:07:59;99907.52;;;11.04;23.07
80640;BME280;69992;60.170;24.692;2023-07-20T06:10:24;99908.66;;;12.00;23.12
80640;BME280;69992;60.170;24.692;2023-07-20T06:12:49;99908.71;;;11.13;23.13
80640;BME280;69992;60.170;24.692;2023-07-20T06:15:24;99909.66;;;12.31;23.12
80640;BME280;69992;60.170;24.692;2023-07-20T06:17:40;99910.60;;;11.62;23.08
80640;BME280;69992;60.170;24.692;2023-07-20T06:20:06;99907.94;;;11.82;23.07
80640;BME280;69992;60.170;24.692;2023-07-20T06:22:31;99906.74;;;11.86;23.27
80640;BME280;69992;60.170;24.692;2023-07-20T06:24:56;99901.59;;;11.95;23.16
80640;BME280;69992;60.170;24.692;2023-07-20T06:27:22;99902.26;;;12.07;23.16
80640;BME280;69992;60.170;24.692;2023-07-20T06:29:48;99903.92;;;12.28;23.14
80640;BME280;69992;60.170;24.692;2023-07-20T06:32:13;99901.90;;;11.31;23.25
80640;BME280;69992;60.170;24.692;2023-07-20T06:34:39;99899.86;;;12.29;23.23
80640;BME280;69992;60.170;24.692;2023-07-20T06:37:05;99896.12;;;12.42;23.22
80640;BME280;69992;60.170;24.692;2023-07-20T06:39:30;99897.95;;;12.60;23.20
80640;BME280;69992;60.170;24.692;2023-07-20T06:41:56;99899.59;;;11.84;23.16
80640;BME280;69992;60.170;24.692;2023-07-20T06:44:21;99898.74;;;13.05;23.11
80640;BME280;69992;60.170;24.692;2023-07-20T06:46:46;99898.63;;;12.24;23.08
80640;BME280;69992;60.170;24.692;2023-07-20T06:51:37;99891.18;;;12.88;23.00
80640;BME280;69992;60.170;24.692;2023-07-20T06:54:02;99884.53;;;12.29;22.97
80640;BME280;69992;60.170;24.692;2023-07-20T06:56:28;99881.36;;;13.68;22.97
80640;BME280;69992;60.170;24.692;2023-07-20T06:58:53;99876.57;;;13.10;22.95
80640;BME280;69992;60.170;24.692;2023-07-20T07:01:19;99873.51;;;13.67;22.92
80640;BME280;69992;60.170;24.692;2023-07-20T07:03:44;99874.50;;;13.33;22.86
80640;BME280;69992;60.170;24.692;2023-07-20T07:06:10;99874.62;;;13.99;22.84
80640;BME280;69992;60.170;24.692;2023-07-20T07:08:35;99876.71;;;14.54;22.82
80640;BME280;69992;60.170;24.692;2023-07-20T07:11:01;99873.38;;;14.84;22.83
80640;BME280;69992;60.170;24.692;2023-07-20T07:13:26;99874.49;;;14.10;22.86
80640;BME280;69992;60.170;24.692;2023-07-20T07:15:51;99875.55;;;15.35;22.85
80640;BME280;69992;60.170;24.692;2023-07-20T07:18:17;99877.71;;;13.61;22.86
80640;BME280;69992;60.170;24.692;2023-07-20T07:20:51;99883.11;;;14.86;22.85
80640;BME280;69992;60.170;24.692;2023-07-20T07:23:08;99878.86;;;14.86;23.02
80640;BME280;69992;60.170;24.692;2023-07-20T07:25:33;99881.58;;;13.81;22.97
80640;BME280;69992;60.170;24.692;2023-07-20T07:27:59;99878.57;;;14.77;23.13
80640;BME280;69992;60.170;24.692;2023-07-20T07:30:24;99873.32;;;14.84;23.10
80640;BME280;69992;60.170;24.692;2023-07-20T07:32:50;99873.50;;;14.09;23.10
80640;BME280;69992;60.170;24.692;2023-07-20T07:35:15;99871.94;;;14.39;23.09
80640;BME280;69992;60.170;24.692;2023-07-20T07:37:41;99869.66;;;14.78;23.08
80640;BME280;69992;60.170;24.692;2023-07-20T07:40:08;99874.01;;;15.22;23.11
80640;BME280;69992;60.170;24.692;2023-07-20T07:42:32;99876.64;;;16.31;23.12
80640;BME280;69992;60.170;24.692;2023-07-20T07:44:58;99881.29;;;15.43;23.16
80640;BME280;69992;60.170;24.692;2023-07-20T07:47:23;99882.90;;;15.41;23.13
80640;BME280;69992;60.170;24.692;2023-07-20T07:49:48;99883.21;;;15.67;23.13
80640;BME280;69992;60.170;24.692;2023-07-20T07:52:13;99889.88;;;14.18;23.15
80640;BME280;69992;60.170;24.692;2023-07-20T07:54:39;99890.76;;;16.61;23.12
80640;BME280;69992;60.170;24.692;2023-07-20T07:57:05;99901.07;;;14.71;23.09
80640;BME280;69992;60.170;24.692;2023-07-20T07:59:30;99908.90;;;16.27;23.14
80640;BME280;69992;60.170;24.692;2023-07-20T08:01:55;99913.41;;;14.69;23.18
80640;BME280;69992;60.170;24.692;2023-07-20T08:04:21;99916.24;;;14.85;23.28
80640;BME280;69992;60.170;24.692;2023-07-20T08:06:46;99911.82;;;14.36;23.27
80640;BME280;69992;60.170;24.692;2023-07-20T08:09:12;99911.46;;;14.09;23.29
80640;BME280;69992;60.170;24.692;2023-07-20T08:11:39;99908.97;;;13.84;23.29
80640;BME280;69992;60.170;24.692;2023-07-20T08:14:03;99907.91;;;13.67;23.30
80640;BME280;69992;60.170;24.692;2023-07-20T08:16:28;99913.00;;;14.49;23.30
80640;BME280;69992;60.170;24.692;2023-07-20T08:18:53;99915.10;;;15.35;23.31
80640;BME280;69992;60.170;24.692;2023-07-20T08:21:19;99918.44;;;13.40;23.29
80640;BME280;69992;60.170;24.692;2023-07-20T08:23:44;99926.87;;;14.55;23.26
80640;BME280;69992;60.170;24.692;2023-07-20T08:26:10;99930.65;;;13.56;23.29
80640;BME280;69992;60.170;24.692;2023-07-20T08:28:35;99931.28;;;14.59;23.24
80640;BME280;69992;60.170;24.692;2023-07-20T08:31:01;99933.35;;;14.76;23.20
80640;BME280;69992;60.170;24.692;2023-07-20T08:33:26;99936.97;;;13.85;23.21
80640;BME280;69992;60.170;24.692;2023-07-20T08:35:52;99935.93;;;14.96;23.19
80640;BME280;69992;60.170;24.692;2023-07-20T08:38:17;99935.07;;;13.03;23.17
80640;BME280;69992;60.170;24.692;2023-07-20T08:40:44;99935.28;;;13.99;23.17
80640;BME280;69992;60.170;24.692;2023-07-20T08:43:09;99936.25;;;14.16;23.22
80640;BME280;69992;60.170;24.692;2023-07-20T08:45:34;99933.64;;;14.44;23.23
80640;BME280;69992;60.170;24.692;2023-07-20T08:48:01;99936.98;;;13.92;23.21
80640;BME280;69992;60.170;24.692;2023-07-20T08:50:25;99928.02;;;15.28;23.17
80640;BME280;69992;60.170;24.692;2023-07-20T08:52:52;99926.48;;;15.70;23.13
80640;BME280;69992;60.170;24.692;2023-07-20T08:55:15;99925.43;;;15.95;23.12
80640;BME280;69992;60.170;24.692;2023-07-20T08:57:41;99927.34;;;16.16;23.13
80640;BME280;69992;60.170;24.692;2023-07-20T09:00:08;99928.09;;;14.58;23.10
80640;BME280;69992;60.170;24.692;2023-07-20T09:02:34;99929.33;;;15.84;23.09
80640;BME280;69992;60.170;24.692;2023-07-20T09:04:57;99932.85;;;15.09;23.07
80640;BME280;69992;60.170;24.692;2023-07-20T09:07:23;99934.67;;;15.22;23.10
80640;BME280;69992;60.170;24.692;2023-07-20T09:09:48;99928.64;;;15.49;23.11
80640;BME280;69992;60.170;24.692;2023-07-20T09:12:14;99926.81;;;16.01;23.10
80640;BME280;69992;60.170;24.692;2023-07-20T09:14:39;99931.68;;;16.69;23.03
80640;BME280;69992;60.170;24.692;2023-07-20T09:17:05;99932.52;;;16.27;22.99
80640;BME280;69992;60.170;24.692;2023-07-20T09:19:30;99929.91;;;17.39;23.01
80640;BME280;69992;60.170;24.692;2023-07-20T09:22:05;99932.16;;;16.66;23.04
80640;BME280;69992;60.170;24.692;2023-07-20T09:24:21;99936.63;;;16.99;23.01
80640;BME280;69992;60.170;24.692;2023-07-20T09:26:48;99939.52;;;17.37;23.01
80640;BME280;69992;60.170;24.692;2023-07-20T09:29:11;99939.06;;;16.77;23.00
80640;BME280;69992;60.170;24.692;2023-07-20T09:31:37;99940.21;;;17.43;22.94
80640;BME280;69992;60.170;24.692;2023-07-20T09:34:03;99945.97;;;17.20;22.86
80640;BME280;69992;60.170;24.692;2023-07-20T09:36:28;99950.14;;;17.81;22.80
80640;BME280;69992;60.170;24.692;2023-07-20T09:38:53;99947.13;;;18.21;22.76
80640;BME280;69992;60.170;24.692;2023-07-20T09:41:19;99948.77;;;17.67;22.73
80640;BME280;69992;60.170;24.692;2023-07-20T09:43:45;99942.39;;;18.78;22.56
80640;BME280;69992;60.170;24.692;2023-07-20T09:46:09;99946.21;;;19.24;22.28
80640;BME280;69992;60.170;24.692;2023-07-20T09:48:35;99943.22;;;20.25;22.05
80640;BME280;69992;60.170;24.692;2023-07-20T09:51:02;99946.21;;;22.23;21.80
80640;BME280;69992;60.170;24.692;2023-07-20T09:53:26;99945.88;;;22.14;21.62
80640;BME280;69992;60.170;24.692;2023-07-20T09:55:52;99955.63;;;23.23;21.53
80640;BME280;69992;60.170;24.692;2023-07-20T09:58:16;99952.60;;;22.77;21.55
80640;BME280;69992;60.170;24.692;2023-07-20T10:00:42;99950.66;;;21.79;21.68
80640;BME280;69992;60.170;24.692;2023-07-20T10:03:07;99947.19;;;21.66;21.83
80640;BME280;69992;60.170;24.692;2023-07-20T10:05:34;99950.31;;;21.71;22.01
80640;BME280;69992;60.170;24.692;2023-07-20T10:07:58;99945.98;;;22.23;21.94
80640;BME280;69992;60.170;24.692;2023-07-20T10:10:23;99950.18;;;24.30;21.73
80640;BME280;69992;60.170;24.692;2023-07-20T10:12:49;99954.82;;;24.76;21.41
80640;BME280;69992;60.170;24.692;2023-07-20T10:15:19;99947.23;;;24.99;21.06
80640;BME280;69992;60.170;24.692;2023-07-20T10:17:48;99959.40;;;25.09;20.81
80640;BME280;69992;60.170;24.692;2023-07-20T10:20:05;99954.94;;;27.29;20.69
80640;BME280;69992;60.170;24.692;2023-07-20T10:22:33;99951.47;;;25.70;20.91
80640;BME280;69992;60.170;24.692;2023-07-20T10:24:55;99952.45;;;23.90;21.26
80640;BME280;69992;60.170;24.692;2023-07-20T10:27:20;99950.93;;;24.64;21.51
80640;BME280;69992;60.170;24.692;2023-07-20T10:29:46;99951.19;;;22.89;21.83
80640;BME280;69992;60.170;24.692;2023-07-20T10:32:11;99956.39;;;23.27;22.10
80640;BME280;69992;60.170;24.692;2023-07-20T10:34:36;99953.86;;;22.79;22.19
80640;BME280;69992;60.170;24.692;2023-07-20T10:37:02;99955.34;;;22.13;22.24
80640;BME280;69992;60.170;24.692;2023-07-20T10:39:28;99956.84;;;22.10;22.42
80640;BME280;69992;60.170;24.692;2023-07-20T10:42:01;99954.54;;;20.97;22.56
80640;BME280;69992;60.170;24.692;2023-07-20T10:44:20;99951.43;;;20.81;22.69
80640;BME280;69992;60.170;24.692;2023-07-20T10:46:44;99950.48;;;20.70;22.82
80640;BME280;69992;60.170;24.692;2023-07-20T10:49:10;99951.01;;;19.75;22.93
80640;BME280;69992;60.170;24.692;2023-07-20T10:51:39;99946.29;;;20.87;23.01
80640;BME280;69992;60.170;24.692;2023-07-20T10:54:02;99942.88;;;20.10;23.10
80640;BME280;69992;60.170;24.692;2023-07-20T10:56:27;99940.48;;;19.54;23.17
80640;BME280;69992;60.170;24.692;2023-07-20T10:58:50;99940.35;;;19.45;23.19
80640;BME280;69992;60.170;24.692;2023-07-20T11:01:17;99938.06;;;19.38;23.22
80640;BME280;69992;60.170;24.692;2023-07-20T11:03:41;99936.64;;;19.08;23.26
80640;BME280;69992;60.170;24.692;2023-07-20T11:08:39;99936.19;;;19.65;23.26
80640;BME280;69992;60.170;24.692;2023-07-20T11:13:23;99930.85;;;18.25;23.29
80640;BME280;69992;60.170;24.692;2023-07-20T11:16:02;99932.34;;;19.89;23.30
80640;BME280;69992;60.170;24.692;2023-07-20T11:18:14;99927.47;;;18.93;23.27
80640;BME280;69992;60.170;24.692;2023-07-20T11:20:39;99933.63;;;18.95;23.27
80640;BME280;69992;60.170;24.692;2023-07-20T11:23:05;99944.36;;;18.91;23.28
80640;BME280;69992;60.170;24.692;2023-07-20T11:25:36;99942.88;;;19.34;23.34
80640;BME280;69992;60.170;24.692;2023-07-20T11:27:55;99971.54;;;18.14;23.41
80640;BME280;69992;60.170;24.692;2023-07-20T11:30:20;99988.03;;;16.79;23.56
80640;BME280;69992;60.170;24.692;2023-07-20T11:32:48;99977.66;;;17.03;23.64
80640;BME280;69992;60.170;24.692;2023-07-20T11:35:13;99972.82;;;16.58;23.75
80640;BME280;69992;60.170;24.692;2023-07-20T11:37:37;99969.70;;;15.26;23.85
80640;BME280;69992;60.170;24.692;2023-07-20T11:40:03;99979.09;;;15.21;23.94
80640;BME280;69992;60.170;24.692;2023-07-20T11:42:28;99983.19;;;14.34;24.01
80640;BME280;69992;60.170;24.692;2023-07-20T11:44:53;99987.10;;;13.68;24.06
80640;BME280;69992;60.170;24.692;2023-07-20T11:47:19;99990.91;;;14.21;24.08
80640;BME280;69992;60.170;24.692;2023-07-20T11:49:44;99984.65;;;14.92;24.09
80640;BME280;69992;60.170;24.692;2023-07-20T11:52:10;99982.22;;;14.78;24.09
80640;BME280;69992;60.170;24.692;2023-07-20T11:54:35;99988.64;;;14.70;24.04
80640;BME280;69992;60.170;24.692;2023-07-20T11:57:01;99986.43;;;14.67;23.98
80640;BME280;69992;60.170;24.692;2023-07-20T11:59:26;99990.63;;;14.69;23.94
80640;BME280;69992;60.170;24.692;2023-07-20T12:01:52;99993.45;;;14.94;23.87
80640;BME280;69992;60.170;24.692;2023-07-20T12:04:17;99991.70;;;13.44;23.81
80640;BME280;69992;60.170;24.692;2023-07-20T12:06:42;99989.37;;;15.33;23.71
80640;BME280;69992;60.170;24.692;2023-07-20T12:09:14;99990.50;;;16.21;23.28
80640;BME280;69992;60.170;24.692;2023-07-20T12:11:34;99991.62;;;19.48;22.77
80640;BME280;69992;60.170;24.692;2023-07-20T12:13:59;99993.14;;;19.17;22.49
80640;BME280;69992;60.170;24.692;2023-07-20T12:16:27;99990.81;;;19.98;22.42
80640;BME280;69992;60.170;24.692;2023-07-20T12:18:59;99996.97;;;19.49;22.24
80640;BME280;69992;60.170;24.692;2023-07-20T12:21:15;100002.42;;;22.40;22.00
80640;BME280;69992;60.170;24.692;2023-07-20T12:23:41;100002.74;;;22.17;21.77
80640;BME280;69992;60.170;24.692;2023-07-20T12:26:07;100008.86;;;20.51;21.63
80640;BME280;69992;60.170;24.692;2023-07-20T12:28:31;100013.77;;;22.80;21.26
80640;BME280;69992;60.170;24.692;2023-07-20T12:30:56;100018.05;;;23.28;21.12
80640;BME280;69992;60.170;24.692;2023-07-20T12:33:22;100011.91;;;23.41;21.34
80640;BME280;69992;60.170;24.692;2023-07-20T12:35:47;100007.18;;;22.82;21.65
80640;BME280;69992;60.170;24.692;2023-07-20T12:38:13;100006.85;;;20.98;21.88
80640;BME280;69992;60.170;24.692;2023-07-20T12:40:38;100007.47;;;20.78;22.15
80640;BME280;69992;60.170;24.692;2023-07-20T12:43:03;100000.50;;;19.64;22.37
80640;BME280;69992;60.170;24.692;2023-07-20T12:45:29;99993.21;;;19.66;22.53
80640;BME280;69992;60.170;24.692;2023-07-20T12:47:54;99997.52;;;21.21;22.51
80640;BME280;69992;60.170;24.692;2023-07-20T12:50:20;99999.54;;;20.25;22.45
80640;BME280;69992;60.170;24.692;2023-07-20T12:52:45;100002.13;;;20.97;22.37